Terminal Aerodrome Forecast
Issued by NWS

Home | Current Version | Previous Version | Text Only | Print | Product List | Glossary On
Versions: 1 2 3 4 5 6 7 8 9 10 11 12 13
371
FTUS44 KLIX 040550
TAFMSY
TAF
KMSY 040550Z 0406/0506 09016KT P6SM -SHRA OVC014
     FM040900 13007KT 5SM -SHRA OVC009
      TEMPO 0411/0413 2SM TSRA OVC006CB
     FM041400 17006KT 3SM -RA OVC010
     FM041600 18007KT 3SM -SHRA OVC020
     FM042300 33007KT 5SM -SHRA OVC015
     FM050400 03007KT 5SM BR OVC008=

USA.gov is the U.S. government's official web portal to all federal, state and local government web resources and services.